Time;durP1;ratioP1;P1;durP2;ratioP2;P2;SDS_P1;SDS_P2;PMS_P1;PMS_P2;Temp;Humidity;BMP_temperature;BMP_pressure;BME280_temperature;BME280_humidity;BME280_pressure;Samples;Min_cycle;Max_cycle;Signal;HPM_P1;HPM_P2
2023/12/08 00:03:02;;;;;;;17.30;8.18;;;;;;;;;;10417640;28;20238;-77
2023/12/08 00:08:03;;;;;;;15.57;8.02;;;;;;;;;;10419268;28;20600;-77
2023/12/08 00:13:05;;;;;;;13.35;8.07;;;;;;;;;;10423299;28;20246;-77
2023/12/08 00:18:05;;;;;;;20.23;9.38;;;;;;;;;;10395597;28;20847;-77
2023/12/08 00:23:06;;;;;;;17.60;9.63;;;;;;;;;;10417835;28;20309;-76
2023/12/08 00:28:08;;;;;;;16.65;9.05;;;;;;;;;;10425136;28;20202;-76
2023/12/08 00:33:09;;;;;;;18.92;9.23;;;;;;;;;;10436002;28;20241;-76
2023/12/08 00:38:10;;;;;;;17.05;9.90;;;;;;;;;;10436703;28;20306;-77
2023/12/08 00:43:11;;;;;;;14.57;7.80;;;;;;;;;;10429955;28;20210;-77
2023/12/08 00:48:12;;;;;;;22.95;8.88;;;;;;;;;;10438851;28;20218;-77
2023/12/08 00:53:13;;;;;;;19.50;8.73;;;;;;;;;;10431774;28;20230;-77
2023/12/08 00:58:17;;;;;;;12.35;6.82;;;;;;;;;;10439658;28;20246;-76
2023/12/08 01:03:18;;;;;;;17.67;8.48;;;;;;;;;;10433274;28;20314;-77
2023/12/08 01:08:19;;;;;;;14.93;8.13;;;;;;;;;;10423729;28;20714;-77
2023/12/08 01:13:20;;;;;;;12.75;7.80;;;;;;;;;;10442315;28;20221;-77
2023/12/08 01:18:21;;;;;;;18.35;8.32;;;;;;;;;;10430320;28;20207;-76
2023/12/08 01:23:22;;;;;;;17.45;8.88;;;;;;;;;;10434719;28;20206;-76
2023/12/08 01:28:23;;;;;;;16.35;8.05;;;;;;;;;;10438848;28;20226;-77
2023/12/08 01:33:24;;;;;;;15.38;8.48;;;;;;;;;;10434327;28;20233;-76
2023/12/08 01:38:25;;;;;;;15.95;7.95;;;;;;;;;;10392352;28;20218;-77
2023/12/08 01:43:26;;;;;;;18.08;8.48;;;;;;;;;;10456130;28;20898;-77
2023/12/08 01:48:28;;;;;;;16.10;8.02;;;;;;;;;;10420140;28;20210;-77
2023/12/08 01:53:29;;;;;;;11.70;7.18;;;;;;;;;;10431458;28;20222;-76
2023/12/08 01:58:31;;;;;;;13.98;8.20;;;;;;;;;;10416317;28;20210;-77
2023/12/08 02:03:33;;;;;;;16.17;8.55;;;;;;;;;;10404920;28;20230;-77
2023/12/08 02:08:34;;;;;;;16.05;7.85;;;;;;;;;;10394889;28;20207;-77
2023/12/08 02:13:35;;;;;;;15.75;7.65;;;;;;;;;;10395595;28;20766;-76
2023/12/08 02:18:37;;;;;;;11.27;6.22;;;;;;;;;;10396578;28;20292;-76
2023/12/08 02:23:41;;;;;;;14.93;7.38;;;;;;;;;;10438133;28;20214;-77
2023/12/08 02:28:43;;;;;;;12.80;7.47;;;;;;;;;;10426071;28;20214;-76
2023/12/08 02:33:46;;;;;;;13.48;7.70;;;;;;;;;;10419948;28;20257;-78
2023/12/08 02:38:47;;;;;;;14.40;7.70;;;;;;;;;;10403715;28;20211;-76
2023/12/08 02:43:48;;;;;;;15.40;7.18;;;;;;;;;;10414839;28;20345;-77
2023/12/08 02:48:49;;;;;;;14.30;7.77;;;;;;;;;;10433251;28;20211;-78
2023/12/08 02:53:50;;;;;;;9.50;6.25;;;;;;;;;;10431642;28;20214;-77
2023/12/08 02:58:51;;;;;;;13.10;7.20;;;;;;;;;;10426646;28;21878;-76
2023/12/08 03:03:52;;;;;;;14.80;7.07;;;;;;;;;;10418791;28;20310;-75
2023/12/08 03:08:54;;;;;;;12.68;7.25;;;;;;;;;;10399576;28;20203;-76
2023/12/08 03:13:55;;;;;;;11.35;7.65;;;;;;;;;;10429481;28;20206;-77
2023/12/08 03:18:56;;;;;;;15.25;6.45;;;;;;;;;;10433286;28;20218;-77
2023/12/08 03:23:57;;;;;;;14.80;7.45;;;;;;;;;;10435839;28;20260;-78
2023/12/08 03:28:58;;;;;;;14.82;7.45;;;;;;;;;;10436270;28;20222;-77
2023/12/08 03:33:59;;;;;;;13.13;7.40;;;;;;;;;;10413164;28;20215;-77
2023/12/08 03:39:00;;;;;;;17.35;8.15;;;;;;;;;;10428327;28;20211;-77
2023/12/08 03:44:01;;;;;;;15.93;8.10;;;;;;;;;;10435060;28;20230;-77
2023/12/08 03:49:02;;;;;;;16.40;7.80;;;;;;;;;;10441960;28;20595;-76
2023/12/08 03:54:03;;;;;;;15.93;7.77;;;;;;;;;;10423980;28;20300;-76
2023/12/08 03:59:04;;;;;;;12.07;6.57;;;;;;;;;;10431322;28;20708;-77
2023/12/08 04:04:05;;;;;;;18.20;8.00;;;;;;;;;;10437440;28;20223;-77
2023/12/08 04:09:06;;;;;;;14.05;7.25;;;;;;;;;;10434899;28;20245;-75
2023/12/08 04:14:07;;;;;;;17.17;7.82;;;;;;;;;;10433695;28;20818;-76
2023/12/08 04:19:08;;;;;;;15.13;7.53;;;;;;;;;;10403985;28;20277;-75
2023/12/08 04:24:09;;;;;;;15.45;7.85;;;;;;;;;;10427748;28;20226;-77
2023/12/08 04:29:10;;;;;;;16.88;7.85;;;;;;;;;;10439258;28;20684;-78
2023/12/08 04:34:11;;;;;;;15.85;7.78;;;;;;;;;;10429802;28;20218;-78
2023/12/08 04:39:12;;;;;;;12.00;5.65;;;;;;;;;;10427007;28;20219;-78
2023/12/08 04:44:13;;;;;;;19.80;9.20;;;;;;;;;;10426119;28;20599;-77
2023/12/08 04:49:14;;;;;;;16.48;8.82;;;;;;;;;;10443117;28;20218;-77
2023/12/08 04:54:15;;;;;;;15.97;8.10;;;;;;;;;;10441529;28;20207;-76
2023/12/08 04:59:16;;;;;;;16.73;8.15;;;;;;;;;;10407343;28;20215;-76
2023/12/08 05:04:17;;;;;;;13.93;7.55;;;;;;;;;;10384659;28;20233;-76
2023/12/08 05:09:23;;;;;;;15.15;8.38;;;;;;;;;;10428056;28;20683;-80
2023/12/08 05:14:24;;;;;;;20.75;8.70;;;;;;;;;;10440648;28;20203;-79
2023/12/08 05:19:25;;;;;;;17.52;9.85;;;;;;;;;;10440800;28;20219;-78
2023/12/08 05:24:26;;;;;;;17.17;9.25;;;;;;;;;;10439212;28;21257;-78
2023/12/08 05:29:27;;;;;;;16.38;8.07;;;;;;;;;;10423628;28;20295;-77
2023/12/08 05:34:28;;;;;;;13.60;8.90;;;;;;;;;;10399205;28;20361;-77
2023/12/08 05:39:29;;;;;;;16.63;9.63;;;;;;;;;;10416236;28;20211;-77
2023/12/08 05:44:30;;;;;;;14.30;9.15;;;;;;;;;;10430469;28;20716;-78
2023/12/08 05:49:30;;;;;;;17.50;10.25;;;;;;;;;;10430451;28;20565;-76
2023/12/08 05:54:31;;;;;;;17.70;8.68;;;;;;;;;;10391653;28;20215;-78
2023/12/08 05:59:33;;;;;;;16.27;9.18;;;;;;;;;;10425097;28;20631;-78
2023/12/08 06:04:34;;;;;;;22.95;9.52;;;;;;;;;;10422250;28;20283;-77
2023/12/08 06:09:35;;;;;;;18.60;9.55;;;;;;;;;;10412804;28;20800;-77
2023/12/08 06:14:36;;;;;;;23.90;9.90;;;;;;;;;;10447974;28;20211;-77
2023/12/08 06:19:37;;;;;;;19.55;8.82;;;;;;;;;;10428198;28;20230;-76
2023/12/08 06:24:38;;;;;;;25.42;11.38;;;;;;;;;;10416615;28;20218;-77
2023/12/08 06:29:39;;;;;;;21.65;8.55;;;;;;;;;;10363978;28;20281;-76
2023/12/08 06:34:40;;;;;;;17.35;9.75;;;;;;;;;;10447678;28;20218;-77
2023/12/08 06:39:42;;;;;;;16.60;9.02;;;;;;;;;;10420910;28;20664;-78
2023/12/08 06:44:43;;;;;;;21.48;9.18;;;;;;;;;;10436615;28;20222;-77
2023/12/08 06:49:44;;;;;;;16.75;8.25;;;;;;;;;;10417191;28;20211;-80
2023/12/08 06:54:45;;;;;;;12.15;6.65;;;;;;;;;;10427038;28;20301;-76
2023/12/08 06:59:46;;;;;;;15.48;9.13;;;;;;;;;;10434022;28;20698;-77
2023/12/08 07:04:47;;;;;;;22.33;10.52;;;;;;;;;;10416509;28;20230;-77
2023/12/08 07:09:48;;;;;;;22.33;12.50;;;;;;;;;;10385453;28;20634;-76
2023/12/08 07:14:50;;;;;;;18.63;9.30;;;;;;;;;;10433633;28;20219;-76
2023/12/08 07:19:51;;;;;;;19.92;9.32;;;;;;;;;;10445155;28;20219;-76
2023/12/08 07:24:52;;;;;;;20.25;10.40;;;;;;;;;;10437277;28;20216;-77
2023/12/08 07:29:53;;;;;;;23.58;9.98;;;;;;;;;;10378189;28;20740;-77
2023/12/08 07:34:54;;;;;;;16.92;9.70;;;;;;;;;;10438221;28;20203;-79
2023/12/08 07:39:55;;;;;;;18.40;9.75;;;;;;;;;;10411452;28;20206;-79
2023/12/08 07:44:56;;;;;;;18.73;8.65;;;;;;;;;;10437226;28;20260;-78
2023/12/08 07:49:57;;;;;;;22.17;9.27;;;;;;;;;;10444318;28;20228;-77
2023/12/08 07:54:58;;;;;;;21.33;10.15;;;;;;;;;;10435277;28;20698;-76
2023/12/08 07:59:59;;;;;;;15.15;8.55;;;;;;;;;;10434563;28;20209;-78
2023/12/08 08:05:00;;;;;;;20.38;9.90;;;;;;;;;;10429657;28;20242;-78
2023/12/08 08:10:05;;;;;;;21.67;9.65;;;;;;;;;;10420341;28;20210;-77
2023/12/08 08:15:06;;;;;;;17.88;9.23;;;;;;;;;;10422438;28;20227;-76
2023/12/08 08:20:07;;;;;;;16.77;9.10;;;;;;;;;;10458933;28;20190;-76
2023/12/08 08:25:09;;;;;;;21.63;10.15;;;;;;;;;;10412135;28;20183;-79
2023/12/08 08:30:10;;;;;;;16.83;8.35;;;;;;;;;;10437201;28;20214;-77
2023/12/08 08:35:11;;;;;;;13.73;8.75;;;;;;;;;;10422570;28;20197;-77
2023/12/08 08:40:12;;;;;;;23.93;9.90;;;;;;;;;;10431388;28;20539;-77
2023/12/08 08:45:13;;;;;;;16.67;8.60;;;;;;;;;;10427747;28;20606;-77
2023/12/08 08:50:14;;;;;;;17.67;8.77;;;;;;;;;;10435657;28;20226;-77
2023/12/08 08:55:15;;;;;;;16.38;9.73;;;;;;;;;;10434741;28;20537;-76
2023/12/08 09:00:18;;;;;;;14.68;7.20;;;;;;;;;;10453654;28;20677;-79
2023/12/08 09:05:19;;;;;;;21.50;9.32;;;;;;;;;;10434950;28;20735;-78
2023/12/08 09:10:20;;;;;;;18.15;8.40;;;;;;;;;;10413583;28;20213;-76
2023/12/08 09:15:21;;;;;;;18.13;9.25;;;;;;;;;;10388408;28;20211;-76
2023/12/08 09:20:23;;;;;;;13.85;8.57;;;;;;;;;;10422731;28;20240;-74
2023/12/08 09:25:24;;;;;;;14.20;6.10;;;;;;;;;;10408571;28;20298;-74
2023/12/08 09:30:27;;;;;;;15.80;8.07;;;;;;;;;;10373718;28;20230;-80
2023/12/08 09:35:28;;;;;;;12.57;7.75;;;;;;;;;;10417978;28;20217;-77
2023/12/08 09:40:32;;;;;;;17.00;8.35;;;;;;;;;;10429685;28;20214;-80
2023/12/08 09:45:33;;;;;;;14.45;8.65;;;;;;;;;;10414759;28;20588;-76
2023/12/08 09:50:34;;;;;;;13.95;8.43;;;;;;;;;;10431778;28;20276;-74
2023/12/08 09:55:37;;;;;;;12.32;6.45;;;;;;;;;;10391030;28;20221;-73
2023/12/08 10:00:40;;;;;;;15.43;7.97;;;;;;;;;;10406529;28;20301;-75
2023/12/08 10:05:41;;;;;;;16.30;7.95;;;;;;;;;;10410073;28;20237;-77
2023/12/08 10:10:43;;;;;;;14.13;8.18;;;;;;;;;;10400945;28;20218;-78
2023/12/08 10:15:44;;;;;;;17.10;8.45;;;;;;;;;;10416178;28;20215;-75
2023/12/08 10:20:45;;;;;;;16.95;8.18;;;;;;;;;;10392336;28;20602;-76
2023/12/08 10:25:47;;;;;;;19.08;9.27;;;;;;;;;;10409481;28;20925;-74
2023/12/08 10:30:52;;;;;;;14.18;8.02;;;;;;;;;;10402217;28;20225;-75
2023/12/08 10:35:53;;;;;;;15.93;8.25;;;;;;;;;;10421071;28;20227;-75
2023/12/08 10:40:54;;;;;;;13.43;7.85;;;;;;;;;;10430029;28;20222;-75
2023/12/08 10:45:55;;;;;;;14.63;8.02;;;;;;;;;;10378245;28;20206;-76
2023/12/08 10:50:57;;;;;;;12.70;6.65;;;;;;;;;;10429283;28;20232;-76
2023/12/08 10:56:03;;;;;;;13.32;7.32;;;;;;;;;;10424908;28;20284;-76
2023/12/08 11:01:12;;;;;;;19.70;8.80;;;;;;;;;;10409747;28;20346;-78
2023/12/08 11:06:20;;;;;;;22.35;6.90;;;;;;;;;;10405652;28;20697;-74
2023/12/08 11:11:22;;;;;;;15.48;8.63;;;;;;;;;;10381060;28;20229;-75
2023/12/08 11:16:38;;;;;;;14.07;6.82;;;;;;;;;;10373438;28;20231;-75
2023/12/08 11:21:40;;;;;;;13.23;6.45;;;;;;;;;;10397487;28;20268;-74
2023/12/08 11:26:52;;;;;;;10.35;6.57;;;;;;;;;;10383672;28;20226;-74
2023/12/08 11:32:03;;;;;;;13.77;7.13;;;;;;;;;;10390337;28;20237;-75
2023/12/08 11:37:08;;;;;;;11.30;6.38;;;;;;;;;;10382708;28;20203;-74
2023/12/08 11:42:16;;;;;;;18.15;8.68;;;;;;;;;;10355068;28;20269;-77
2023/12/08 11:47:19;;;;;;;16.85;8.15;;;;;;;;;;10374687;28;20305;-76
2023/12/08 11:52:21;;;;;;;13.85;7.93;;;;;;;;;;10376496;28;20623;-77
2023/12/08 11:57:22;;;;;;;15.70;7.25;;;;;;;;;;10376088;28;20212;-77
2023/12/08 12:02:23;;;;;;;16.08;7.85;;;;;;;;;;10386484;28;20246;-77
2023/12/08 12:07:25;;;;;;;14.82;7.22;;;;;;;;;;10371392;28;20223;-77
2023/12/08 12:12:29;;;;;;;12.40;7.30;;;;;;;;;;10410463;28;20215;-77
2023/12/08 12:17:30;;;;;;;12.95;6.97;;;;;;;;;;10395800;28;20208;-77
2023/12/08 12:22:31;;;;;;;12.70;7.65;;;;;;;;;;10413021;28;20214;-77
2023/12/08 12:27:33;;;;;;;12.38;5.05;;;;;;;;;;10413290;28;20206;-77
2023/12/08 12:32:34;;;;;;;12.55;7.38;;;;;;;;;;10430216;28;20308;-78
2023/12/08 12:37:35;;;;;;;13.93;7.95;;;;;;;;;;10429030;28;20210;-78
2023/12/08 12:42:47;;;;;;;15.30;8.05;;;;;;;;;;10431671;28;20214;-76
2023/12/08 12:47:48;;;;;;;13.50;6.78;;;;;;;;;;10397402;28;20280;-77
2023/12/08 12:52:49;;;;;;;11.38;7.18;;;;;;;;;;10427214;28;20738;-78
2023/12/08 12:57:50;;;;;;;15.65;8.00;;;;;;;;;;10388053;28;20994;-76
2023/12/08 13:02:51;;;;;;;11.80;7.47;;;;;;;;;;10418929;28;20211;-75
2023/12/08 13:07:57;;;;;;;13.50;6.70;;;;;;;;;;10415910;28;20249;-77
2023/12/08 13:12:59;;;;;;;18.02;7.80;;;;;;;;;;10426861;28;20759;-76
2023/12/08 13:18:00;;;;;;;14.23;7.60;;;;;;;;;;10431652;28;20771;-75
2023/12/08 13:23:02;;;;;;;10.32;6.40;;;;;;;;;;10414804;28;20222;-76
2023/12/08 13:28:03;;;;;;;9.75;5.88;;;;;;;;;;10407497;28;20218;-76
2023/12/08 13:33:04;;;;;;;11.00;6.57;;;;;;;;;;10423292;28;20306;-75
2023/12/08 13:38:05;;;;;;;7.90;6.72;;;;;;;;;;10413439;28;20224;-76
2023/12/08 13:43:06;;;;;;;13.45;7.53;;;;;;;;;;10393604;28;20215;-76
2023/12/08 13:48:07;;;;;;;10.43;6.95;;;;;;;;;;10378810;28;21215;-75
2023/12/08 13:53:08;;;;;;;13.82;7.15;;;;;;;;;;10415645;28;20225;-75
2023/12/08 13:58:10;;;;;;;11.73;6.78;;;;;;;;;;10400788;28;20269;-75
2023/12/08 14:03:11;;;;;;;13.80;7.45;;;;;;;;;;10414622;28;20215;-75
2023/12/08 14:08:12;;;;;;;6.32;5.18;;;;;;;;;;10426162;28;20850;-76
2023/12/08 14:13:13;;;;;;;17.02;8.60;;;;;;;;;;10386734;28;20219;-75
2023/12/08 14:18:14;;;;;;;15.77;7.78;;;;;;;;;;10404099;28;20213;-75
2023/12/08 14:23:15;;;;;;;13.95;7.38;;;;;;;;;;10419613;28;20241;-75
2023/12/08 14:28:16;;;;;;;11.93;7.03;;;;;;;;;;10418715;28;20301;-75
2023/12/08 14:33:17;;;;;;;13.10;7.10;;;;;;;;;;10412654;28;20211;-77
2023/12/08 14:38:18;;;;;;;12.88;6.63;;;;;;;;;;10417401;28;20206;-74
2023/12/08 14:43:19;;;;;;;11.98;7.82;;;;;;;;;;10393786;28;20211;-75
2023/12/08 14:48:22;;;;;;;12.40;6.97;;;;;;;;;;10379111;28;20226;-75
2023/12/08 14:53:23;;;;;;;17.00;7.65;;;;;;;;;;10407590;28;20226;-75
2023/12/08 14:58:26;;;;;;;10.02;6.85;;;;;;;;;;10393486;28;20211;-75
2023/12/08 15:03:27;;;;;;;12.02;6.63;;;;;;;;;;10383889;28;20275;-75
2023/12/08 15:08:28;;;;;;;14.75;7.20;;;;;;;;;;10388476;28;20361;-75
2023/12/08 15:13:29;;;;;;;13.13;6.80;;;;;;;;;;10415571;28;20222;-75
2023/12/08 15:18:30;;;;;;;11.55;6.95;;;;;;;;;;10411380;28;20242;-75
2023/12/08 15:23:32;;;;;;;15.98;7.88;;;;;;;;;;10379043;28;20219;-75
2023/12/08 15:28:33;;;;;;;14.70;7.90;;;;;;;;;;10382342;28;20222;-75
2023/12/08 15:33:34;;;;;;;16.60;7.88;;;;;;;;;;10426731;28;20253;-75
2023/12/08 15:38:36;;;;;;;19.05;8.52;;;;;;;;;;10431133;28;20220;-75
2023/12/08 15:43:37;;;;;;;20.88;8.65;;;;;;;;;;10424271;28;20207;-76
2023/12/08 15:48:38;;;;;;;13.80;8.40;;;;;;;;;;10416982;28;20227;-75
2023/12/08 15:53:40;;;;;;;14.75;8.27;;;;;;;;;;10416403;28;20654;-75
2023/12/08 15:58:41;;;;;;;20.08;9.38;;;;;;;;;;10404495;28;20325;-75
2023/12/08 16:03:42;;;;;;;15.48;8.50;;;;;;;;;;10416885;28;20317;-74
2023/12/08 16:08:44;;;;;;;15.20;9.23;;;;;;;;;;10419869;28;20208;-76
2023/12/08 16:13:46;;;;;;;15.40;8.85;;;;;;;;;;10423503;28;20603;-76
2023/12/08 16:18:47;;;;;;;16.42;8.48;;;;;;;;;;10407173;28;20242;-76
2023/12/08 16:23:48;;;;;;;19.30;9.52;;;;;;;;;;10396054;28;20603;-75
2023/12/08 16:28:49;;;;;;;18.90;9.40;;;;;;;;;;10416363;28;20210;-76
2023/12/08 16:33:50;;;;;;;21.80;10.30;;;;;;;;;;10395616;28;20219;-75
2023/12/08 16:38:51;;;;;;;16.25;9.13;;;;;;;;;;10393494;28;21054;-75
2023/12/08 16:43:52;;;;;;;22.35;10.77;;;;;;;;;;10386215;28;20705;-77
2023/12/08 16:48:53;;;;;;;13.88;9.18;;;;;;;;;;10415055;28;20210;-77
2023/12/08 16:53:54;;;;;;;15.73;9.00;;;;;;;;;;10387347;28;21786;-77
2023/12/08 16:58:55;;;;;;;20.58;10.07;;;;;;;;;;10407520;28;20221;-76
2023/12/08 17:03:56;;;;;;;18.27;10.07;;;;;;;;;;10336567;28;20354;-76
2023/12/08 17:08:57;;;;;;;17.20;10.10;;;;;;;;;;10376028;28;20330;-76
2023/12/08 17:13:58;;;;;;;21.83;10.25;;;;;;;;;;10380763;28;20226;-77
2023/12/08 17:19:00;;;;;;;14.20;9.70;;;;;;;;;;10389657;28;20223;-78
2023/12/08 17:24:01;;;;;;;18.80;9.60;;;;;;;;;;10407057;28;20228;-76
2023/12/08 17:29:03;;;;;;;20.05;9.77;;;;;;;;;;10350966;28;20235;-76
2023/12/08 17:34:04;;;;;;;17.27;9.73;;;;;;;;;;10376967;28;20218;-78
2023/12/08 17:39:05;;;;;;;15.95;9.07;;;;;;;;;;10395326;28;20225;-78
2023/12/08 17:44:06;;;;;;;22.42;10.27;;;;;;;;;;10411323;28;20218;-76
2023/12/08 17:49:07;;;;;;;18.77;10.18;;;;;;;;;;10443405;28;20216;-79
2023/12/08 17:54:08;;;;;;;17.13;10.00;;;;;;;;;;10412681;28;20226;-79
2023/12/08 17:59:09;;;;;;;17.55;9.45;;;;;;;;;;10415575;28;20271;-76
2023/12/08 18:04:10;;;;;;;17.95;9.50;;;;;;;;;;10419687;28;20231;-76
2023/12/08 18:09:11;;;;;;;16.48;9.57;;;;;;;;;;10387777;28;20219;-76
2023/12/08 18:14:12;;;;;;;14.85;8.98;;;;;;;;;;10370389;28;20246;-76
2023/12/08 18:19:14;;;;;;;12.88;8.65;;;;;;;;;;10410935;28;20215;-77
2023/12/08 18:24:15;;;;;;;22.48;9.73;;;;;;;;;;10346093;28;20228;-76
2023/12/08 18:29:17;;;;;;;16.73;9.88;;;;;;;;;;10400618;28;20226;-78
2023/12/08 18:34:18;;;;;;;19.52;11.13;;;;;;;;;;10418637;28;20202;-76
2023/12/08 18:39:19;;;;;;;26.90;11.80;;;;;;;;;;10403003;28;20206;-78
2023/12/08 18:44:20;;;;;;;13.48;8.35;;;;;;;;;;10393544;28;20279;-77
2023/12/08 18:49:21;;;;;;;14.23;9.15;;;;;;;;;;10382397;28;20222;-75
2023/12/08 18:54:24;;;;;;;15.80;8.65;;;;;;;;;;10359828;28;20215;-75
2023/12/08 18:59:25;;;;;;;17.40;10.05;;;;;;;;;;10358758;28;20238;-74
2023/12/08 19:04:26;;;;;;;19.05;9.02;;;;;;;;;;10387048;28;20952;-76
2023/12/08 19:09:27;;;;;;;19.95;10.68;;;;;;;;;;10414967;28;20202;-78
2023/12/08 19:14:28;;;;;;;18.42;9.38;;;;;;;;;;10426937;28;20219;-78
2023/12/08 19:19:29;;;;;;;19.02;9.27;;;;;;;;;;10392840;28;20210;-77
2023/12/08 19:24:30;;;;;;;18.65;10.13;;;;;;;;;;10395351;28;21127;-73
2023/12/08 19:29:31;;;;;;;17.23;9.85;;;;;;;;;;10407528;28;20211;-78
2023/12/08 19:34:32;;;;;;;19.90;10.50;;;;;;;;;;10355694;28;20704;-75
2023/12/08 19:39:34;;;;;;;16.73;9.48;;;;;;;;;;10388848;28;20774;-76
2023/12/08 19:44:35;;;;;;;18.45;10.35;;;;;;;;;;10377365;28;20204;-75
2023/12/08 19:49:36;;;;;;;17.63;9.80;;;;;;;;;;10353487;28;20223;-76
2023/12/08 19:54:37;;;;;;;17.85;9.02;;;;;;;;;;10389863;28;20215;-76
2023/12/08 19:59:38;;;;;;;22.00;10.30;;;;;;;;;;10383733;28;20206;-75
2023/12/08 20:04:39;;;;;;;15.85;9.73;;;;;;;;;;10391788;28;20246;-75
2023/12/08 20:09:40;;;;;;;19.10;10.00;;;;;;;;;;10391416;28;20269;-75
2023/12/08 20:14:41;;;;;;;15.45;9.27;;;;;;;;;;10396828;28;20349;-77
2023/12/08 20:19:42;;;;;;;19.67;10.77;;;;;;;;;;10390775;28;20226;-77
2023/12/08 20:24:43;;;;;;;17.30;9.65;;;;;;;;;;10343204;28;21036;-76
2023/12/08 20:29:44;;;;;;;19.20;10.43;;;;;;;;;;10401990;28;20259;-77
2023/12/08 20:34:46;;;;;;;18.92;10.50;;;;;;;;;;10390009;28;20268;-75
2023/12/08 20:39:47;;;;;;;16.23;9.38;;;;;;;;;;10384195;28;20969;-75
2023/12/08 20:44:48;;;;;;;17.15;9.40;;;;;;;;;;10394531;28;20238;-75
2023/12/08 20:49:50;;;;;;;17.40;9.57;;;;;;;;;;10396945;28;20211;-76
2023/12/08 20:54:51;;;;;;;18.98;9.60;;;;;;;;;;10391930;28;20703;-78
2023/12/08 20:59:52;;;;;;;15.77;10.00;;;;;;;;;;10424682;28;20214;-78
2023/12/08 21:04:53;;;;;;;16.50;9.63;;;;;;;;;;10428131;28;20695;-78
2023/12/08 21:09:55;;;;;;;18.45;8.68;;;;;;;;;;10410513;28;20219;-76
2023/12/08 21:14:56;;;;;;;16.88;8.90;;;;;;;;;;10391508;28;20221;-75
2023/12/08 21:19:57;;;;;;;19.05;10.13;;;;;;;;;;10398064;28;20620;-78
2023/12/08 21:24:58;;;;;;;15.68;8.80;;;;;;;;;;10400892;28;20225;-78
2023/12/08 21:29:59;;;;;;;16.38;8.93;;;;;;;;;;10368814;28;20223;-78
2023/12/08 21:35:00;;;;;;;17.20;8.82;;;;;;;;;;10388028;28;20206;-76
2023/12/08 21:40:02;;;;;;;16.40;9.50;;;;;;;;;;10370367;28;20566;-78
2023/12/08 21:45:03;;;;;;;17.88;9.82;;;;;;;;;;10389749;28;20279;-76
2023/12/08 21:50:05;;;;;;;21.80;10.40;;;;;;;;;;10386291;28;20622;-75
2023/12/08 21:55:06;;;;;;;17.45;9.73;;;;;;;;;;10376990;28;20780;-78
2023/12/08 22:00:07;;;;;;;16.60;9.27;;;;;;;;;;10432718;28;20476;-80
2023/12/08 22:05:13;;;;;;;19.55;9.60;;;;;;;;;;10403627;28;20744;-79
2023/12/08 22:10:15;;;;;;;19.77;10.07;;;;;;;;;;10436413;28;20204;-79
2023/12/08 22:15:16;;;;;;;20.30;10.05;;;;;;;;;;10429729;28;20179;-78
2023/12/08 22:20:18;;;;;;;20.88;9.90;;;;;;;;;;10435663;28;20625;-79
2023/12/08 22:25:19;;;;;;;23.27;10.88;;;;;;;;;;10445935;28;20187;-78
2023/12/08 22:30:20;;;;;;;16.45;9.07;;;;;;;;;;10428091;28;20657;-79
2023/12/08 22:35:21;;;;;;;15.80;9.40;;;;;;;;;;10396428;28;20225;-79
2023/12/08 22:40:22;;;;;;;17.60;9.07;;;;;;;;;;10447020;28;20186;-77
2023/12/08 22:45:24;;;;;;;19.83;9.80;;;;;;;;;;10453099;28;20630;-78
2023/12/08 22:50:25;;;;;;;17.30;9.20;;;;;;;;;;10458080;28;20206;-78
2023/12/08 22:55:26;;;;;;;15.80;9.13;;;;;;;;;;10433583;28;20248;-78
2023/12/08 23:00:27;;;;;;;15.32;8.70;;;;;;;;;;10425344;28;20206;-78
2023/12/08 23:05:30;;;;;;;17.17;8.68;;;;;;;;;;10430139;28;20245;-77
2023/12/08 23:10:33;;;;;;;15.43;9.13;;;;;;;;;;10430771;28;20233;-79
2023/12/08 23:15:34;;;;;;;12.82;7.80;;;;;;;;;;10427311;28;20749;-79
2023/12/08 23:20:35;;;;;;;17.35;8.05;;;;;;;;;;10403367;28;20214;-78
2023/12/08 23:25:36;;;;;;;17.10;9.18;;;;;;;;;;10458267;28;20218;-79
2023/12/08 23:30:38;;;;;;;17.83;9.02;;;;;;;;;;10411413;28;20214;-79
2023/12/08 23:35:39;;;;;;;19.38;9.00;;;;;;;;;;10425291;28;20261;-79
2023/12/08 23:40:40;;;;;;;16.08;8.75;;;;;;;;;;10405020;28;20317;-79
2023/12/08 23:45:41;;;;;;;20.95;9.68;;;;;;;;;;10402602;28;20224;-79
2023/12/08 23:50:42;;;;;;;21.60;8.48;;;;;;;;;;10396952;28;22292;-79
2023/12/08 23:55:43;;;;;;;20.42;9.25;;;;;;;;;;10441603;28;20218;-79
